createdAt,value
2018-04-15T00:02:01.993Z,9.90
2018-04-15T00:04:30.546Z,10.00
2018-04-15T00:06:58.169Z,10.00
2018-04-15T00:09:25.841Z,10.00
2018-04-15T00:11:53.557Z,10.00
2018-04-15T00:14:21.184Z,10.00
2018-04-15T00:16:49.741Z,10.00
2018-04-15T00:19:17.381Z,10.00
2018-04-15T00:21:45.773Z,10.00
2018-04-15T00:24:14.204Z,10.00
2018-04-15T00:26:41.837Z,10.00
2018-04-15T00:29:10.225Z,10.10
2018-04-15T00:31:38.666Z,10.10
2018-04-15T00:34:06.289Z,10.10
2018-04-15T00:36:34.697Z,10.10
2018-04-15T00:39:02.613Z,10.10
2018-04-15T00:41:31.673Z,10.10
2018-04-15T00:44:00.993Z,10.10
2018-04-15T00:46:28.657Z,10.10
2018-04-15T00:48:57.049Z,10.10
2018-04-15T00:51:25.453Z,10.10
2018-04-15T00:54:04.810Z,10.10
2018-04-15T00:56:32.436Z,10.10
2018-04-15T00:59:01.110Z,10.00
2018-04-15T01:01:28.778Z,10.10
2018-04-15T01:03:56.410Z,10.10
2018-04-15T01:06:24.034Z,10.00
2018-04-15T01:08:51.711Z,10.00
2018-04-15T01:11:19.444Z,10.00
2018-04-15T01:13:47.077Z,10.00
2018-04-15T01:16:15.509Z,10.00
2018-04-15T01:18:43.130Z,10.00
2018-04-15T01:21:10.849Z,10.00
2018-04-15T01:23:38.520Z,10.00
2018-04-15T01:26:06.151Z,10.00
2018-04-15T01:28:33.778Z,10.00
2018-04-15T01:31:01.645Z,10.00
2018-04-15T01:33:29.347Z,10.00
2018-04-15T01:35:56.969Z,10.00
2018-04-15T01:38:25.394Z,10.00
2018-04-15T01:40:53.025Z,10.00
2018-04-15T01:43:20.693Z,10.00
2018-04-15T01:45:48.509Z,10.00
2018-04-15T01:48:16.185Z,10.00
2018-04-15T01:50:43.897Z,10.00
2018-04-15T01:53:11.564Z,10.00
2018-04-15T01:55:39.210Z,10.00
2018-04-15T01:58:06.898Z,10.00
2018-04-15T02:00:34.564Z,10.00
2018-04-15T02:03:02.193Z,10.00
2018-04-15T02:05:31.539Z,10.00
2018-04-15T02:07:59.210Z,10.00
2018-04-15T02:10:26.841Z,10.00
2018-04-15T02:12:54.465Z,10.00
2018-04-15T02:15:22.245Z,10.00
2018-04-15T02:17:49.879Z,10.00
2018-04-15T02:20:18.273Z,10.00
2018-04-15T02:22:46.713Z,10.00
2018-04-15T02:25:14.357Z,10.00
2018-04-15T02:27:42.741Z,10.00
2018-04-15T02:30:11.173Z,10.00
2018-04-15T02:32:38.789Z,9.90
2018-04-15T02:35:07.177Z,9.80
2018-04-15T02:37:35.705Z,9.80
2018-04-15T02:40:03.362Z,9.80
2018-04-15T02:42:31.277Z,9.70
2018-04-15T02:44:59.197Z,9.70
2018-04-15T02:47:26.825Z,9.70
2018-04-15T02:49:54.361Z,9.60
2018-04-15T02:52:21.980Z,9.60
2018-04-15T02:54:49.516Z,9.60
2018-04-15T02:57:17.848Z,9.50
2018-04-15T02:59:45.440Z,9.50
2018-04-15T03:02:13.004Z,9.40
2018-04-15T03:04:40.646Z,9.40
2018-04-15T03:07:08.225Z,9.40
2018-04-15T03:09:35.797Z,9.40
2018-04-15T03:12:03.337Z,9.40
2018-04-15T03:14:32.289Z,9.30
2018-04-15T03:16:59.831Z,9.30
2018-04-15T03:19:27.420Z,9.30
2018-04-15T03:21:55.017Z,9.30
2018-04-15T03:24:22.672Z,9.30
2018-04-15T03:26:50.206Z,9.30
2018-04-15T03:29:18.618Z,9.30
2018-04-15T03:31:46.145Z,9.30
2018-04-15T03:34:13.764Z,9.20
2018-04-15T03:36:41.348Z,9.20
2018-04-15T03:39:08.900Z,9.20
2018-04-15T03:41:36.440Z,9.20
2018-04-15T03:44:04.861Z,9.20
2018-04-15T03:46:32.399Z,9.10
2018-04-15T03:49:01.619Z,9.10
2018-04-15T03:51:29.961Z,9.10
2018-04-15T03:53:57.525Z,9.10
2018-04-15T03:56:25.066Z,9.10
2018-04-15T03:58:52.641Z,9.00
2018-04-15T04:01:20.216Z,9.00
2018-04-15T04:03:47.744Z,9.00
2018-04-15T04:06:15.321Z,9.00
2018-04-15T04:08:42.849Z,9.00
2018-04-15T04:11:10.417Z,9.00
2018-04-15T04:13:37.993Z,9.20
2018-04-15T04:16:05.528Z,9.00
2018-04-15T04:18:44.932Z,9.00
2018-04-15T04:21:24.263Z,9.00
2018-04-15T04:24:03.895Z,9.00
2018-04-15T04:26:32.478Z,8.90
2018-04-15T04:29:02.426Z,8.90
2018-04-15T04:31:30.118Z,8.90
2018-04-15T04:33:57.661Z,8.90
2018-04-15T04:36:25.230Z,8.90
2018-04-15T04:38:52.812Z,8.90
2018-04-15T04:41:20.388Z,8.90
2018-04-15T04:43:47.924Z,8.90
2018-04-15T04:46:16.269Z,8.90
2018-04-15T04:48:43.807Z,8.90
2018-04-15T04:51:11.339Z,8.90
2018-04-15T04:53:38.917Z,8.80
2018-04-15T04:56:07.235Z,8.90
2018-04-15T04:58:34.770Z,8.80
2018-04-15T05:01:03.211Z,8.80
2018-04-15T05:03:32.429Z,8.80
2018-04-15T05:05:59.963Z,8.80
2018-04-15T05:08:28.296Z,8.80
2018-04-15T05:10:55.828Z,8.80
2018-04-15T05:13:23.615Z,8.80
2018-04-15T05:15:51.512Z,8.80
2018-04-15T05:18:19.868Z,8.80
2018-04-15T05:20:48.170Z,8.80
2018-04-15T05:23:15.859Z,8.80
2018-04-15T05:25:43.445Z,8.80
2018-04-15T05:28:11.018Z,8.90
2018-04-15T05:30:38.676Z,8.90
2018-04-15T05:33:06.212Z,9.00
2018-04-15T05:35:34.552Z,9.00
2018-04-15T05:38:03.835Z,9.00
2018-04-15T05:40:31.381Z,9.00
2018-04-15T05:42:59.685Z,9.00
2018-04-15T05:45:27.275Z,9.00
2018-04-15T05:47:54.812Z,9.00
2018-04-15T05:50:23.121Z,9.00
2018-04-15T05:52:50.701Z,9.00
2018-04-15T05:55:18.251Z,9.00
2018-04-15T05:57:46.587Z,9.10
2018-04-15T06:00:14.168Z,9.00
2018-04-15T06:02:41.906Z,9.00
2018-04-15T06:05:09.490Z,9.00
2018-04-15T06:07:37.069Z,9.00
2018-04-15T06:10:04.601Z,9.00
2018-04-15T06:12:32.787Z,9.10
2018-04-15T06:15:01.225Z,9.20
2018-04-15T06:17:28.756Z,9.20
2018-04-15T06:19:56.329Z,9.20
2018-04-15T06:22:23.921Z,9.30
2018-04-15T06:24:51.453Z,9.30
2018-04-15T06:27:19.753Z,9.40
2018-04-15T06:29:48.103Z,9.40
2018-04-15T06:32:15.740Z,9.40
2018-04-15T06:34:43.288Z,9.40
2018-04-15T06:37:11.625Z,9.40
2018-04-15T06:39:39.157Z,9.40
2018-04-15T06:42:06.693Z,9.40
2018-04-15T06:44:34.281Z,9.40
2018-04-15T06:47:03.516Z,9.50
2018-04-15T06:49:31.052Z,9.50
2018-04-15T06:51:58.620Z,9.60
2018-04-15T06:54:26.937Z,9.60
2018-04-15T06:56:54.475Z,9.60
2018-04-15T06:59:22.829Z,9.70
2018-04-15T07:01:50.361Z,9.70
2018-04-15T07:04:18.661Z,9.70
2018-04-15T07:06:46.257Z,9.70
2018-04-15T07:09:13.804Z,9.70
2018-04-15T07:11:41.333Z,9.70
2018-04-15T07:14:09.015Z,9.70
2018-04-15T07:16:36.642Z,9.70
2018-04-15T07:19:04.193Z,9.60
2018-04-15T07:21:31.886Z,9.70
2018-04-15T07:23:59.449Z,9.70
2018-04-15T07:26:26.982Z,9.70
2018-04-15T07:28:55.365Z,9.80
2018-04-15T07:31:22.989Z,9.70
2018-04-15T07:33:50.537Z,9.80
2018-04-15T07:36:18.372Z,9.80
2018-04-15T07:38:45.913Z,9.80
2018-04-15T07:41:13.440Z,9.80
2018-04-15T07:43:41.021Z,9.70
2018-04-15T07:46:09.349Z,9.70
2018-04-15T07:48:36.893Z,9.70
2018-04-15T07:51:04.496Z,9.70
2018-04-15T07:53:32.049Z,9.70
2018-04-15T07:55:59.580Z,9.80
2018-04-15T07:58:27.928Z,9.80
2018-04-15T08:00:55.656Z,9.80
2018-04-15T08:03:23.991Z,9.80
2018-04-15T08:05:51.565Z,9.80
2018-04-15T08:08:19.097Z,9.90
2018-04-15T08:10:46.659Z,9.80
2018-04-15T08:13:14.271Z,9.80
2018-04-15T08:15:41.834Z,9.80
2018-04-15T08:18:09.376Z,9.80
2018-04-15T08:20:37.719Z,9.90
2018-04-15T08:23:05.295Z,9.80
2018-04-15T08:25:32.924Z,9.90
2018-04-15T08:28:00.613Z,9.90
2018-04-15T08:30:28.136Z,9.90
2018-04-15T08:32:56.452Z,10.00
2018-04-15T08:35:24.143Z,10.00
2018-04-15T08:37:51.684Z,10.00
2018-04-15T08:40:19.992Z,9.90
2018-04-15T08:42:47.569Z,9.90
2018-04-15T08:45:15.110Z,9.90
2018-04-15T08:47:43.409Z,9.90
2018-04-15T08:50:11.849Z,9.90
2018-04-15T08:52:39.388Z,9.90
2018-04-15T08:55:06.925Z,9.90
2018-04-15T08:57:35.281Z,9.90
2018-04-15T09:00:02.881Z,9.80
2018-04-15T09:02:30.421Z,9.80
2018-04-15T09:04:58.070Z,9.80
2018-04-15T09:07:25.596Z,9.90
2018-04-15T09:09:53.147Z,9.90
2018-04-15T09:12:20.732Z,9.90
2018-04-15T09:14:48.307Z,9.90
2018-04-15T09:17:15.901Z,9.90
2018-04-15T09:19:43.442Z,9.90
2018-04-15T09:22:10.987Z,9.90
2018-04-15T09:24:38.546Z,10.00
2018-04-15T09:27:06.125Z,10.00
2018-04-15T09:29:33.722Z,10.00
2018-04-15T09:32:01.225Z,10.00
2018-04-15T09:34:29.667Z,10.10
2018-04-15T09:36:57.209Z,10.10
2018-04-15T09:39:24.753Z,10.10
2018-04-15T09:41:53.103Z,10.10
2018-04-15T09:44:20.650Z,10.10
2018-04-15T09:46:48.217Z,10.00
2018-04-15T09:49:15.814Z,10.00
2018-04-15T09:51:43.376Z,10.00
2018-04-15T09:54:10.956Z,9.90
2018-04-15T09:56:38.565Z,10.00
2018-04-15T09:59:06.928Z,10.10
2018-04-15T10:01:34.483Z,10.10
2018-04-15T10:04:02.056Z,10.10
2018-04-15T10:06:29.611Z,10.20
2018-04-15T10:08:57.164Z,10.30
2018-04-15T10:11:24.841Z,10.30
2018-04-15T10:13:52.381Z,10.40
2018-04-15T10:16:20.681Z,10.50
2018-04-15T10:18:49.029Z,10.50
2018-04-15T10:21:16.561Z,10.50
2018-04-15T10:23:44.099Z,10.50
2018-04-15T10:26:11.713Z,10.60
2018-04-15T10:28:39.244Z,10.60
2018-04-15T10:31:07.550Z,10.50
2018-04-15T10:33:35.132Z,10.40
2018-04-15T10:36:02.669Z,10.40
2018-04-15T10:38:30.212Z,10.30
2018-04-15T10:40:57.790Z,10.40
2018-04-15T10:43:25.326Z,10.40
2018-04-15T10:45:52.909Z,10.40
2018-04-15T10:48:20.501Z,10.40
2018-04-15T10:50:48.037Z,10.40
2018-04-15T10:53:15.656Z,10.30
2018-04-15T10:55:43.234Z,10.30
2018-04-15T10:58:10.773Z,10.20
2018-04-15T11:00:38.423Z,10.20
2018-04-15T11:03:06.011Z,10.10
2018-04-15T11:05:33.567Z,10.20
2018-04-15T11:08:01.109Z,10.30
2018-04-15T11:10:29.477Z,10.40
2018-04-15T11:12:57.012Z,10.40
2018-04-15T11:15:24.562Z,10.40
2018-04-15T11:17:52.588Z,10.50
2018-04-15T11:20:20.144Z,10.60
2018-04-15T11:22:47.709Z,10.70
2018-04-15T11:25:15.297Z,10.70
2018-04-15T11:27:42.841Z,10.70
2018-04-15T11:30:10.411Z,10.70
2018-04-15T11:32:38.008Z,10.70
2018-04-15T11:35:05.536Z,10.70
2018-04-15T11:37:33.089Z,10.70
2018-04-15T11:40:01.453Z,10.70
2018-04-15T11:42:29.021Z,10.70
2018-04-15T11:44:56.561Z,10.70
2018-04-15T11:47:24.146Z,10.80
2018-04-15T11:49:52.616Z,10.90
2018-04-15T11:52:20.163Z,10.90
2018-04-15T11:54:48.509Z,11.00
2018-04-15T11:57:16.053Z,11.00
2018-04-15T11:59:43.614Z,11.10
2018-04-15T12:02:11.241Z,11.10
2018-04-15T12:04:38.765Z,11.10
2018-04-15T12:07:06.307Z,11.10
2018-04-15T12:09:34.712Z,11.00
2018-04-15T12:12:02.252Z,11.00
2018-04-15T12:14:29.780Z,11.00
2018-04-15T12:16:57.356Z,10.90
2018-04-15T12:19:24.892Z,10.90
2018-04-15T12:21:53.693Z,11.00
2018-04-15T12:24:21.272Z,10.90
2018-04-15T12:26:48.845Z,11.00
2018-04-15T12:29:17.137Z,11.00
2018-04-15T12:31:44.817Z,11.00
2018-04-15T12:34:12.357Z,11.00
2018-04-15T12:36:40.662Z,11.00
2018-04-15T12:39:08.241Z,11.00
2018-04-15T12:41:35.780Z,11.00
2018-04-15T12:44:04.080Z,11.00
2018-04-15T12:46:32.421Z,11.10
2018-04-15T12:48:59.955Z,11.00
2018-04-15T12:51:27.635Z,11.10
2018-04-15T12:53:55.320Z,11.10
2018-04-15T12:56:23.889Z,11.00
2018-04-15T12:58:51.474Z,11.00
2018-04-15T13:01:19.165Z,11.00
2018-04-15T13:03:46.709Z,11.00
2018-04-15T13:06:14.244Z,10.90
2018-04-15T13:08:43.339Z,10.90
2018-04-15T13:11:10.885Z,10.90
2018-04-15T13:13:38.433Z,11.00
2018-04-15T13:16:06.042Z,11.00
2018-04-15T13:18:33.608Z,11.10
2018-04-15T13:21:01.155Z,11.10
2018-04-15T13:23:28.855Z,11.20
2018-04-15T13:25:56.393Z,11.30
2018-04-15T13:28:23.934Z,11.30
2018-04-15T13:30:51.512Z,11.40
2018-04-15T13:33:19.814Z,11.50
2018-04-15T13:35:47.360Z,11.50
2018-04-15T13:38:14.938Z,11.60
2018-04-15T13:40:42.477Z,11.70
2018-04-15T13:43:10.018Z,11.80
2018-04-15T13:45:37.610Z,11.90
2018-04-15T13:48:05.143Z,11.90
2018-04-15T13:50:32.694Z,12.00
2018-04-15T13:53:00.360Z,12.20
2018-04-15T13:55:27.893Z,12.30
2018-04-15T13:57:55.432Z,12.50
2018-04-15T14:00:23.481Z,12.60
2018-04-15T14:02:51.020Z,12.60
2018-04-15T14:05:18.551Z,12.60
2018-04-15T14:07:46.907Z,12.80
2018-04-15T14:10:14.461Z,12.80
2018-04-15T14:12:41.994Z,12.90
2018-04-15T14:15:09.582Z,12.90
2018-04-15T14:17:37.117Z,12.80
2018-04-15T14:20:05.412Z,12.80
2018-04-15T14:22:33.755Z,12.90
2018-04-15T14:25:01.293Z,12.90
2018-04-15T14:27:28.832Z,13.00
2018-04-15T14:29:57.172Z,13.20
2018-04-15T14:32:24.701Z,13.20
2018-04-15T14:34:53.940Z,13.40
2018-04-15T14:37:21.628Z,13.40
2018-04-15T14:39:49.168Z,13.50
2018-04-15T14:42:16.702Z,13.40
2018-04-15T14:44:45.856Z,13.30
2018-04-15T14:47:13.393Z,13.20
2018-04-15T14:49:40.926Z,13.30
2018-04-15T14:52:08.505Z,13.30
2018-04-15T14:54:36.039Z,13.30
2018-04-15T14:57:03.607Z,13.20
2018-04-15T14:59:31.181Z,13.20
2018-04-15T15:01:58.718Z,13.10
2018-04-15T15:04:27.043Z,13.00
2018-04-15T15:06:54.692Z,13.00
2018-04-15T15:09:23.917Z,13.10
2018-04-15T15:11:51.452Z,13.10
2018-04-15T15:14:19.037Z,13.00
2018-04-15T15:16:47.343Z,13.10
2018-04-15T15:19:14.914Z,13.10
2018-04-15T15:21:42.497Z,13.10
2018-04-15T15:24:10.041Z,13.20
2018-04-15T15:26:38.381Z,13.20
2018-04-15T15:29:06.365Z,13.10
2018-04-15T15:31:33.911Z,13.10
2018-04-15T15:34:01.491Z,13.10
2018-04-15T15:36:29.073Z,13.10
2018-04-15T15:38:56.604Z,13.10
2018-04-15T15:41:24.912Z,13.20
2018-04-15T15:43:52.500Z,13.20
2018-04-15T15:46:20.057Z,13.20
2018-04-15T15:48:47.606Z,13.30
2018-04-15T15:51:15.953Z,13.20
2018-04-15T15:53:43.491Z,13.20
2018-04-15T15:56:11.027Z,13.20
2018-04-15T15:58:39.381Z,13.00
2018-04-15T16:01:06.925Z,13.00
2018-04-15T16:03:34.465Z,13.00
2018-04-15T16:06:02.809Z,13.10
2018-04-15T16:08:30.340Z,13.10
2018-04-15T16:10:57.900Z,13.10
2018-04-15T16:13:26.245Z,12.90
2018-04-15T16:15:53.936Z,12.90
2018-04-15T16:18:21.468Z,12.80
2018-04-15T16:20:49.084Z,12.70
2018-04-15T16:23:16.625Z,12.70
2018-04-15T16:25:44.166Z,12.80
2018-04-15T16:28:11.777Z,12.80
2018-04-15T16:30:39.310Z,12.90
2018-04-15T16:33:06.885Z,13.00
2018-04-15T16:35:34.604Z,13.00
2018-04-15T16:38:02.367Z,13.00
2018-04-15T16:40:30.701Z,13.10
2018-04-15T16:42:59.060Z,13.00
2018-04-15T16:45:26.594Z,13.00
2018-04-15T16:47:54.193Z,13.00
2018-04-15T16:50:21.727Z,12.90
2018-04-15T16:52:49.269Z,13.00
2018-04-15T16:55:17.568Z,12.90
2018-04-15T16:57:45.253Z,12.90
2018-04-15T17:00:12.892Z,13.00
2018-04-15T17:02:40.369Z,12.90
2018-04-15T17:05:08.789Z,12.90
2018-04-15T17:07:36.443Z,12.90
2018-04-15T17:10:04.768Z,13.00
2018-04-15T17:12:32.340Z,12.90
2018-04-15T17:14:59.896Z,12.90
2018-04-15T17:17:27.440Z,12.80
2018-04-15T17:19:55.888Z,12.60
2018-04-15T17:22:24.228Z,12.60
2018-04-15T17:24:52.537Z,12.50
2018-04-15T17:27:20.140Z,12.50
2018-04-15T17:29:47.685Z,12.50
2018-04-15T17:32:15.262Z,12.50
2018-04-15T17:34:42.835Z,12.50
2018-04-15T17:37:10.390Z,12.50
2018-04-15T17:39:37.926Z,12.40
2018-04-15T17:42:06.480Z,12.40
2018-04-15T17:44:34.008Z,12.30
2018-04-15T17:47:02.314Z,12.30
2018-04-15T17:49:29.901Z,12.30
2018-04-15T17:51:57.485Z,12.40
2018-04-15T17:54:25.193Z,12.30
2018-04-15T17:56:52.764Z,12.30
2018-04-15T17:59:20.304Z,12.30
2018-04-15T18:01:47.913Z,12.30
2018-04-15T18:04:15.497Z,12.20
2018-04-15T18:06:43.809Z,12.30
2018-04-15T18:09:11.447Z,12.30
2018-04-15T18:11:39.077Z,12.30
2018-04-15T18:14:06.648Z,12.30
2018-04-15T18:16:34.198Z,12.40
2018-04-15T18:19:01.866Z,12.40
2018-04-15T18:21:29.395Z,12.40
2018-04-15T18:23:56.929Z,12.40
2018-04-15T18:26:24.621Z,12.50
2018-04-15T18:28:52.155Z,12.50
2018-04-15T18:31:19.685Z,12.50
2018-04-15T18:33:47.269Z,12.50
2018-04-15T18:36:15.572Z,12.50
2018-04-15T18:38:43.877Z,12.50
2018-04-15T18:41:11.457Z,12.50
2018-04-15T18:43:39.016Z,12.50
2018-04-15T18:46:06.551Z,12.60
2018-04-15T18:48:34.234Z,12.50
2018-04-15T18:51:02.534Z,12.60
2018-04-15T18:53:30.829Z,12.50
2018-04-15T18:55:59.224Z,12.50
2018-04-15T18:58:26.761Z,12.60
2018-04-15T19:00:54.735Z,12.50
2018-04-15T19:03:22.322Z,12.50
2018-04-15T19:05:49.853Z,12.50
2018-04-15T19:08:17.433Z,12.40
2018-04-15T19:10:45.048Z,12.50
2018-04-15T19:13:13.382Z,12.40
2018-04-15T19:15:40.913Z,12.40
2018-04-15T19:18:09.262Z,12.40
2018-04-15T19:20:36.805Z,12.40
2018-04-15T19:23:04.385Z,12.40
2018-04-15T19:25:31.988Z,12.40
2018-04-15T19:27:59.522Z,12.40
2018-04-15T19:30:27.056Z,12.40
2018-04-15T19:32:54.873Z,12.30
2018-04-15T19:35:22.423Z,12.40
2018-04-15T19:37:49.985Z,12.30
2018-04-15T19:40:17.581Z,12.40
2018-04-15T19:42:45.104Z,12.40
2018-04-15T19:45:13.409Z,12.30
2018-04-15T19:47:40.997Z,12.30
2018-04-15T19:50:08.529Z,12.30
2018-04-15T19:52:36.834Z,12.30
2018-04-15T19:55:05.295Z,12.30
2018-04-15T19:57:32.836Z,12.30
2018-04-15T20:00:00.377Z,12.30
2018-04-15T20:02:27.957Z,12.30
2018-04-15T20:04:55.493Z,12.30
2018-04-15T20:07:23.801Z,12.10
2018-04-15T20:09:52.153Z,12.10
2018-04-15T20:12:19.684Z,12.10
2018-04-15T20:14:47.232Z,12.00
2018-04-15T20:17:15.583Z,12.00
2018-04-15T20:19:43.148Z,12.00
2018-04-15T20:22:10.680Z,11.90
2018-04-15T20:24:38.266Z,11.90
2018-04-15T20:27:05.854Z,11.90
2018-04-15T20:29:33.355Z,11.80
2018-04-15T20:32:01.083Z,11.80
2018-04-15T20:34:28.645Z,11.80
2018-04-15T20:36:56.200Z,11.80
2018-04-15T20:39:25.495Z,11.70
2018-04-15T20:41:53.012Z,11.60
2018-04-15T20:44:20.553Z,11.60
2018-04-15T20:46:48.922Z,11.60
2018-04-15T20:49:17.352Z,11.60
2018-04-15T20:51:44.910Z,11.60
2018-04-15T20:54:12.497Z,11.60
2018-04-15T20:56:40.032Z,11.60
2018-04-15T20:59:08.336Z,11.50
2018-04-15T21:01:35.916Z,11.60
2018-04-15T21:04:03.458Z,11.50
2018-04-15T21:06:30.997Z,11.50
2018-04-15T21:08:58.587Z,11.50
2018-04-15T21:11:26.897Z,11.40
2018-04-15T21:13:56.140Z,11.30
2018-04-15T21:16:23.821Z,11.30
2018-04-15T21:18:51.369Z,11.30
2018-04-15T21:21:18.963Z,11.30
2018-04-15T21:23:46.637Z,11.30
2018-04-15T21:26:14.173Z,11.30
2018-04-15T21:28:42.589Z,11.20
2018-04-15T21:31:10.178Z,11.10
2018-04-15T21:33:37.715Z,11.10
2018-04-15T21:36:05.268Z,11.10
2018-04-15T21:38:33.619Z,11.10
2018-04-15T21:41:01.149Z,11.00
2018-04-15T21:43:28.706Z,11.00
2018-04-15T21:45:57.045Z,11.00
2018-04-15T21:48:25.520Z,11.00
2018-04-15T21:50:53.100Z,11.00
2018-04-15T21:53:20.685Z,11.00
2018-04-15T21:55:48.223Z,11.00
2018-04-15T21:58:15.756Z,11.00
2018-04-15T22:00:43.349Z,11.00
2018-04-15T22:03:11.777Z,11.00
2018-04-15T22:05:39.331Z,11.00
2018-04-15T22:08:07.009Z,11.00
2018-04-15T22:10:34.551Z,11.10
2018-04-15T22:13:07.293Z,11.10
2018-04-15T22:15:34.845Z,11.10
2018-04-15T22:18:02.389Z,11.10
2018-04-15T22:20:30.731Z,11.10
2018-04-15T22:22:58.265Z,11.10
2018-04-15T22:25:25.810Z,11.20
2018-04-15T22:27:54.349Z,11.20
2018-04-15T22:30:21.908Z,11.10
2018-04-15T22:32:49.453Z,11.10
2018-04-15T22:35:17.801Z,11.10
2018-04-15T22:37:45.339Z,11.10
2018-04-15T22:40:12.872Z,11.10
2018-04-15T22:42:41.228Z,11.10
2018-04-15T22:45:08.888Z,11.10
2018-04-15T22:47:36.425Z,11.00
2018-04-15T22:50:10.545Z,11.10
2018-04-15T22:52:38.877Z,11.10
2018-04-15T22:55:06.545Z,11.00
2018-04-15T22:57:34.129Z,11.10
2018-04-15T23:00:01.674Z,11.00
2018-04-15T23:02:29.221Z,11.00
2018-04-15T23:04:57.564Z,11.00
2018-04-15T23:07:25.778Z,11.00
2018-04-15T23:09:53.313Z,11.00
2018-04-15T23:12:20.898Z,10.90
2018-04-15T23:14:48.445Z,10.90
2018-04-15T23:17:16.029Z,10.90
2018-04-15T23:19:43.657Z,10.90
2018-04-15T23:22:11.969Z,10.90
2018-04-15T23:24:39.553Z,10.90
2018-04-15T23:27:08.149Z,10.90
2018-04-15T23:29:35.686Z,10.80
2018-04-15T23:32:04.005Z,10.80
2018-04-15T23:34:31.589Z,10.80
2018-04-15T23:36:59.240Z,10.80
2018-04-15T23:39:26.888Z,10.70
2018-04-15T23:41:54.433Z,10.80
2018-04-15T23:44:21.976Z,10.70
2018-04-15T23:46:49.509Z,10.70
2018-04-15T23:49:17.856Z,10.70
2018-04-15T23:51:45.389Z,10.70
2018-04-15T23:54:12.933Z,10.70
2018-04-15T23:56:41.277Z,10.70
2018-04-15T23:59:08.816Z,10.70
